Terminal Aerodrome Forecast
Issued by NWS Omaha/Valley, NE

Home | Current Version | Previous Version | Text Only | Print | Product List | Glossary On
Versions: 1 2 3 4 5 6 7 8 9 10 11 12 13 14 15 16 17 18 19 20 21 22 23 24 25 26 27 28 29 30 31 32 33 34 35 36 37 38 39 40 41 42
000
FTUS43 KOAX 131720
TAFOFK
TAF
KOFK 131720Z 1318/1418 15014KT P6SM OVC040
     FM132000 15016G22KT P6SM OVC035
     FM140300 16015G24KT P6SM OVC025 PROB30 1404/1410 3SM -SN BR
      OVC015
     FM141200 27010KT P6SM OVC060
     FM141500 30010KT P6SM BKN090=

USA.gov is the U.S. government's official web portal to all federal, state and local government web resources and services.